sensor_id;sensor_type;location;lat;lon;timestamp;P1;durP1;ratioP1;P2;durP2;ratioP2
2544;SDS011;36212;48.838;9.142;2023-05-15T00:01:16;6.25;;;5.70;;
2544;SDS011;36212;48.838;9.142;2023-05-15T00:03:48;5.38;;;5.00;;
2544;SDS011;36212;48.838;9.142;2023-05-15T00:06:21;5.60;;;5.20;;
2544;SDS011;36212;48.838;9.142;2023-05-15T00:08:53;6.43;;;5.40;;
2544;SDS011;36212;48.838;9.142;2023-05-15T00:11:26;5.43;;;4.95;;
2544;SDS011;36212;48.838;9.142;2023-05-15T00:13:58;5.70;;;5.20;;
2544;SDS011;36212;48.838;9.142;2023-05-15T00:16:30;6.53;;;5.40;;
2544;SDS011;36212;48.838;9.142;2023-05-15T00:19:02;5.55;;;5.20;;
2544;SDS011;36212;48.838;9.142;2023-05-15T00:21:35;5.30;;;5.00;;
2544;SDS011;36212;48.838;9.142;2023-05-15T00:24:07;5.75;;;5.25;;
2544;SDS011;36212;48.838;9.142;2023-05-15T00:26:39;6.05;;;5.55;;
2544;SDS011;36212;48.838;9.142;2023-05-15T00:29:11;5.25;;;4.85;;
2544;SDS011;36212;48.838;9.142;2023-05-15T00:31:43;4.93;;;4.63;;
2544;SDS011;36212;48.838;9.142;2023-05-15T00:34:16;5.95;;;5.45;;
2544;SDS011;36212;48.838;9.142;2023-05-15T00:36:48;6.13;;;5.72;;
2544;SDS011;36212;48.838;9.142;2023-05-15T00:39:20;5.40;;;5.00;;
2544;SDS011;36212;48.838;9.142;2023-05-15T00:41:52;6.50;;;5.90;;
2544;SDS011;36212;48.838;9.142;2023-05-15T00:44:26;6.50;;;5.90;;
2544;SDS011;36212;48.838;9.142;2023-05-15T00:47:01;6.72;;;6.22;;
2544;SDS011;36212;48.838;9.142;2023-05-15T00:49:34;7.03;;;6.43;;
2544;SDS011;36212;48.838;9.142;2023-05-15T00:52:08;7.50;;;6.43;;
2544;SDS011;36212;48.838;9.142;2023-05-15T00:54:41;7.07;;;6.47;;
2544;SDS011;36212;48.838;9.142;2023-05-15T00:57:13;7.15;;;6.60;;
2544;SDS011;36212;48.838;9.142;2023-05-15T00:59:46;6.45;;;5.90;;
2544;SDS011;36212;48.838;9.142;2023-05-15T01:02:23;5.97;;;5.53;;
2544;SDS011;36212;48.838;9.142;2023-05-15T01:04:55;6.57;;;6.07;;
2544;SDS011;36212;48.838;9.142;2023-05-15T01:07:29;5.38;;;4.88;;
2544;SDS011;36212;48.838;9.142;2023-05-15T01:10:10;6.22;;;5.72;;
2544;SDS011;36212;48.838;9.142;2023-05-15T01:12:44;6.18;;;5.68;;
2544;SDS011;36212;48.838;9.142;2023-05-15T01:15:19;6.85;;;6.25;;
2544;SDS011;36212;48.838;9.142;2023-05-15T01:17:52;6.90;;;6.40;;
2544;SDS011;36212;48.838;9.142;2023-05-15T01:20:24;7.50;;;6.60;;
2544;SDS011;36212;48.838;9.142;2023-05-15T01:23:05;6.63;;;6.03;;
2544;SDS011;36212;48.838;9.142;2023-05-15T01:28:58;6.43;;;5.93;;
2544;SDS011;36212;48.838;9.142;2023-05-15T01:31:37;7.30;;;6.70;;
2544;SDS011;36212;48.838;9.142;2023-05-15T01:34:19;7.18;;;6.53;;
2544;SDS011;36212;48.838;9.142;2023-05-15T01:37:10;7.55;;;6.95;;
2544;SDS011;36212;48.838;9.142;2023-05-15T01:39:45;8.10;;;7.40;;
2544;SDS011;36212;48.838;9.142;2023-05-15T01:42:26;7.63;;;6.60;;
2544;SDS011;36212;48.838;9.142;2023-05-15T01:45:05;8.15;;;7.38;;
2544;SDS011;36212;48.838;9.142;2023-05-15T01:47:43;6.93;;;6.43;;
2544;SDS011;36212;48.838;9.142;2023-05-15T01:50:17;6.57;;;6.13;;
2544;SDS011;36212;48.838;9.142;2023-05-15T01:52:52;7.43;;;6.82;;
2544;SDS011;36212;48.838;9.142;2023-05-15T01:55:27;7.78;;;7.07;;
2544;SDS011;36212;48.838;9.142;2023-05-15T01:58:01;8.52;;;5.65;;
2544;SDS011;36212;48.838;9.142;2023-05-15T02:00:35;7.28;;;6.15;;
2544;SDS011;36212;48.838;9.142;2023-05-15T02:03:10;6.47;;;5.90;;
2544;SDS011;36212;48.838;9.142;2023-05-15T02:05:43;5.93;;;5.53;;
2544;SDS011;36212;48.838;9.142;2023-05-15T02:08:18;6.93;;;6.30;;
2544;SDS011;36212;48.838;9.142;2023-05-15T02:10:52;5.80;;;5.40;;
2544;SDS011;36212;48.838;9.142;2023-05-15T02:13:27;6.88;;;6.28;;
2544;SDS011;36212;48.838;9.142;2023-05-15T02:16:03;5.68;;;5.25;;
2544;SDS011;36212;48.838;9.142;2023-05-15T02:18:35;5.80;;;5.30;;
2544;SDS011;36212;48.838;9.142;2023-05-15T02:21:08;6.03;;;5.63;;
2544;SDS011;36212;48.838;9.142;2023-05-15T02:23:41;6.03;;;5.60;;
2544;SDS011;36212;48.838;9.142;2023-05-15T02:26:25;5.38;;;4.97;;
2544;SDS011;36212;48.838;9.142;2023-05-15T02:29:19;7.65;;;6.07;;
2544;SDS011;36212;48.838;9.142;2023-05-15T02:38:16;5.60;;;5.20;;
2544;SDS011;36212;48.838;9.142;2023-05-15T02:40:59;6.57;;;6.03;;
2544;SDS011;36212;48.838;9.142;2023-05-15T02:43:34;6.22;;;5.82;;
2544;SDS011;36212;48.838;9.142;2023-05-15T02:46:08;4.97;;;4.68;;
2544;SDS011;36212;48.838;9.142;2023-05-15T02:48:42;6.80;;;5.70;;
2544;SDS011;36212;48.838;9.142;2023-05-15T02:51:15;5.68;;;5.18;;
2544;SDS011;36212;48.838;9.142;2023-05-15T02:53:47;5.82;;;5.43;;
2544;SDS011;36212;48.838;9.142;2023-05-15T02:56:21;6.65;;;6.05;;
2544;SDS011;36212;48.838;9.142;2023-05-15T02:58:53;6.30;;;5.80;;
2544;SDS011;36212;48.838;9.142;2023-05-15T03:01:25;5.85;;;5.45;;
2544;SDS011;36212;48.838;9.142;2023-05-15T03:03:57;5.47;;;5.07;;
2544;SDS011;36212;48.838;9.142;2023-05-15T03:06:30;6.10;;;5.60;;
2544;SDS011;36212;48.838;9.142;2023-05-15T03:09:02;6.32;;;5.82;;
2544;SDS011;36212;48.838;9.142;2023-05-15T03:11:34;6.65;;;6.13;;
2544;SDS011;36212;48.838;9.142;2023-05-15T03:14:06;6.35;;;5.75;;
2544;SDS011;36212;48.838;9.142;2023-05-15T03:16:38;5.82;;;5.43;;
2544;SDS011;36212;48.838;9.142;2023-05-15T03:19:10;6.35;;;5.85;;
2544;SDS011;36212;48.838;9.142;2023-05-15T03:21:43;6.38;;;5.90;;
2544;SDS011;36212;48.838;9.142;2023-05-15T03:24:15;6.20;;;5.60;;
2544;SDS011;36212;48.838;9.142;2023-05-15T03:26:47;6.78;;;6.10;;
2544;SDS011;36212;48.838;9.142;2023-05-15T03:29:19;6.22;;;5.75;;
2544;SDS011;36212;48.838;9.142;2023-05-15T03:31:51;7.20;;;6.60;;
2544;SDS011;36212;48.838;9.142;2023-05-15T03:34:23;6.90;;;6.30;;
2544;SDS011;36212;48.838;9.142;2023-05-15T03:36:55;6.32;;;5.72;;
2544;SDS011;36212;48.838;9.142;2023-05-15T03:39:28;5.45;;;5.05;;
2544;SDS011;36212;48.838;9.142;2023-05-15T03:42:00;6.63;;;6.10;;
2544;SDS011;36212;48.838;9.142;2023-05-15T03:44:32;6.03;;;5.53;;
2544;SDS011;36212;48.838;9.142;2023-05-15T03:47:04;6.65;;;6.00;;
2544;SDS011;36212;48.838;9.142;2023-05-15T03:49:36;7.00;;;6.50;;
2544;SDS011;36212;48.838;9.142;2023-05-15T03:52:08;6.47;;;5.97;;
2544;SDS011;36212;48.838;9.142;2023-05-15T03:54:41;6.60;;;6.10;;
2544;SDS011;36212;48.838;9.142;2023-05-15T03:57:13;6.60;;;5.90;;
2544;SDS011;36212;48.838;9.142;2023-05-15T03:59:45;6.53;;;6.00;;
2544;SDS011;36212;48.838;9.142;2023-05-15T04:02:17;6.97;;;6.10;;
2544;SDS011;36212;48.838;9.142;2023-05-15T04:04:49;7.55;;;6.95;;
2544;SDS011;36212;48.838;9.142;2023-05-15T04:07:22;6.90;;;6.30;;
2544;SDS011;36212;48.838;9.142;2023-05-15T04:09:54;7.03;;;6.53;;
2544;SDS011;36212;48.838;9.142;2023-05-15T04:12:33;8.45;;;6.25;;
2544;SDS011;36212;48.838;9.142;2023-05-15T04:15:19;7.00;;;6.40;;
2544;SDS011;36212;48.838;9.142;2023-05-15T04:17:54;8.57;;;7.68;;
2544;SDS011;36212;48.838;9.142;2023-05-15T04:20:26;7.75;;;6.90;;
2544;SDS011;36212;48.838;9.142;2023-05-15T04:22:58;7.60;;;7.00;;
2544;SDS011;36212;48.838;9.142;2023-05-15T04:25:31;8.50;;;7.57;;
2544;SDS011;36212;48.838;9.142;2023-05-15T04:28:04;10.40;;;6.80;;
2544;SDS011;36212;48.838;9.142;2023-05-15T04:30:37;7.68;;;7.03;;
2544;SDS011;36212;48.838;9.142;2023-05-15T04:33:09;7.93;;;7.22;;
2544;SDS011;36212;48.838;9.142;2023-05-15T04:35:41;8.00;;;7.40;;
2544;SDS011;36212;48.838;9.142;2023-05-15T04:38:14;8.73;;;8.02;;
2544;SDS011;36212;48.838;9.142;2023-05-15T04:40:46;7.80;;;7.18;;
2544;SDS011;36212;48.838;9.142;2023-05-15T04:43:18;7.22;;;6.60;;
2544;SDS011;36212;48.838;9.142;2023-05-15T04:45:51;8.68;;;7.93;;
2544;SDS011;36212;48.838;9.142;2023-05-15T04:48:23;7.97;;;7.35;;
2544;SDS011;36212;48.838;9.142;2023-05-15T04:50:56;8.43;;;7.72;;
2544;SDS011;36212;48.838;9.142;2023-05-15T04:53:28;8.23;;;7.57;;
2544;SDS011;36212;48.838;9.142;2023-05-15T04:56:00;7.85;;;7.18;;
2544;SDS011;36212;48.838;9.142;2023-05-15T04:58:32;8.52;;;7.72;;
2544;SDS011;36212;48.838;9.142;2023-05-15T05:01:04;8.30;;;7.60;;
2544;SDS011;36212;48.838;9.142;2023-05-15T05:03:36;7.57;;;6.88;;
2544;SDS011;36212;48.838;9.142;2023-05-15T05:06:09;8.93;;;8.02;;
2544;SDS011;36212;48.838;9.142;2023-05-15T05:08:41;7.75;;;7.25;;
2544;SDS011;36212;48.838;9.142;2023-05-15T05:11:13;9.52;;;8.63;;
2544;SDS011;36212;48.838;9.142;2023-05-15T05:13:46;7.75;;;7.15;;
2544;SDS011;36212;48.838;9.142;2023-05-15T05:16:18;7.88;;;7.18;;
2544;SDS011;36212;48.838;9.142;2023-05-15T05:18:50;8.40;;;7.70;;
2544;SDS011;36212;48.838;9.142;2023-05-15T05:21:22;9.13;;;8.32;;
2544;SDS011;36212;48.838;9.142;2023-05-15T05:23:54;8.85;;;8.07;;
2544;SDS011;36212;48.838;9.142;2023-05-15T05:26:27;7.97;;;7.18;;
2544;SDS011;36212;48.838;9.142;2023-05-15T05:28:59;8.30;;;7.60;;
2544;SDS011;36212;48.838;9.142;2023-05-15T05:31:31;8.50;;;7.55;;
2544;SDS011;36212;48.838;9.142;2023-05-15T05:34:04;9.82;;;8.90;;
2544;SDS011;36212;48.838;9.142;2023-05-15T05:36:38;8.70;;;8.00;;
2544;SDS011;36212;48.838;9.142;2023-05-15T05:39:10;8.75;;;8.15;;
2544;SDS011;36212;48.838;9.142;2023-05-15T05:41:43;9.05;;;8.25;;
2544;SDS011;36212;48.838;9.142;2023-05-15T05:44:15;9.30;;;8.60;;
2544;SDS011;36212;48.838;9.142;2023-05-15T05:46:47;9.00;;;8.30;;
2544;SDS011;36212;48.838;9.142;2023-05-15T05:49:21;8.45;;;7.70;;
2544;SDS011;36212;48.838;9.142;2023-05-15T05:51:55;10.07;;;9.27;;
2544;SDS011;36212;48.838;9.142;2023-05-15T05:54:35;9.60;;;8.70;;
2544;SDS011;36212;48.838;9.142;2023-05-15T05:57:09;7.90;;;7.40;;
2544;SDS011;36212;48.838;9.142;2023-05-15T05:59:41;8.43;;;7.60;;
2544;SDS011;36212;48.838;9.142;2023-05-15T06:02:15;8.48;;;7.88;;
2544;SDS011;36212;48.838;9.142;2023-05-15T06:04:48;7.68;;;6.95;;
2544;SDS011;36212;48.838;9.142;2023-05-15T06:07:24;9.20;;;8.50;;
2544;SDS011;36212;48.838;9.142;2023-05-15T06:10:03;8.43;;;7.78;;
2544;SDS011;36212;48.838;9.142;2023-05-15T06:12:38;7.35;;;6.85;;
2544;SDS011;36212;48.838;9.142;2023-05-15T06:15:15;6.88;;;6.28;;
2544;SDS011;36212;48.838;9.142;2023-05-15T06:17:48;6.97;;;6.47;;
2544;SDS011;36212;48.838;9.142;2023-05-15T06:20:22;6.80;;;6.30;;
2544;SDS011;36212;48.838;9.142;2023-05-15T06:22:56;6.63;;;6.17;;
2544;SDS011;36212;48.838;9.142;2023-05-15T06:25:29;6.27;;;5.67;;
2544;SDS011;36212;48.838;9.142;2023-05-15T06:28:04;5.80;;;5.50;;
2544;SDS011;36212;48.838;9.142;2023-05-15T06:30:37;6.00;;;5.60;;
2544;SDS011;36212;48.838;9.142;2023-05-15T06:33:09;6.53;;;6.13;;
2544;SDS011;36212;48.838;9.142;2023-05-15T06:35:42;6.40;;;5.83;;
2544;SDS011;36212;48.838;9.142;2023-05-15T06:38:19;6.13;;;5.60;;
2544;SDS011;36212;48.838;9.142;2023-05-15T06:40:53;6.20;;;5.83;;
2544;SDS011;36212;48.838;9.142;2023-05-15T06:43:30;5.33;;;5.03;;
2544;SDS011;36212;48.838;9.142;2023-05-15T06:46:03;5.90;;;5.60;;
2544;SDS011;36212;48.838;9.142;2023-05-15T06:48:37;5.27;;;4.97;;
2544;SDS011;36212;48.838;9.142;2023-05-15T06:51:09;5.83;;;4.63;;
2544;SDS011;36212;48.838;9.142;2023-05-15T06:53:42;5.63;;;5.23;;
2544;SDS011;36212;48.838;9.142;2023-05-15T06:56:14;5.63;;;5.10;;
2544;SDS011;36212;48.838;9.142;2023-05-15T06:58:47;4.83;;;4.53;;
2544;SDS011;36212;48.838;9.142;2023-05-15T07:01:19;5.47;;;5.10;;
2544;SDS011;36212;48.838;9.142;2023-05-15T07:03:53;5.60;;;5.10;;
2544;SDS011;36212;48.838;9.142;2023-05-15T07:06:29;4.57;;;4.37;;
2544;SDS011;36212;48.838;9.142;2023-05-15T07:09:08;5.23;;;4.93;;
2544;SDS011;36212;48.838;9.142;2023-05-15T07:11:43;5.20;;;4.90;;
2544;SDS011;36212;48.838;9.142;2023-05-15T07:14:17;5.20;;;4.80;;
2544;SDS011;36212;48.838;9.142;2023-05-15T07:16:50;4.63;;;4.33;;
2544;SDS011;36212;48.838;9.142;2023-05-15T07:19:22;5.17;;;4.77;;
2544;SDS011;36212;48.838;9.142;2023-05-15T07:21:55;5.10;;;4.70;;
2544;SDS011;36212;48.838;9.142;2023-05-15T07:24:28;4.27;;;3.97;;
2544;SDS011;36212;48.838;9.142;2023-05-15T07:27:00;5.60;;;4.37;;
2544;SDS011;36212;48.838;9.142;2023-05-15T07:29:33;4.70;;;4.40;;
2544;SDS011;36212;48.838;9.142;2023-05-15T07:32:05;4.40;;;4.10;;
2544;SDS011;36212;48.838;9.142;2023-05-15T07:34:38;4.70;;;4.30;;
2544;SDS011;36212;48.838;9.142;2023-05-15T07:37:11;7.03;;;5.07;;
2544;SDS011;36212;48.838;9.142;2023-05-15T07:39:47;5.10;;;4.80;;
2544;SDS011;36212;48.838;9.142;2023-05-15T07:42:20;4.23;;;4.00;;
2544;SDS011;36212;48.838;9.142;2023-05-15T07:44:54;6.30;;;3.60;;
2544;SDS011;36212;48.838;9.142;2023-05-15T07:47:26;7.17;;;3.67;;
2544;SDS011;36212;48.838;9.142;2023-05-15T07:49:59;4.07;;;3.77;;
2544;SDS011;36212;48.838;9.142;2023-05-15T07:52:33;4.57;;;4.27;;
2544;SDS011;36212;48.838;9.142;2023-05-15T07:55:09;4.80;;;4.50;;
2544;SDS011;36212;48.838;9.142;2023-05-15T07:57:43;4.20;;;4.00;;
2544;SDS011;36212;48.838;9.142;2023-05-15T08:00:23;4.80;;;4.40;;
2544;SDS011;36212;48.838;9.142;2023-05-15T08:02:55;4.00;;;3.80;;
2544;SDS011;36212;48.838;9.142;2023-05-15T08:05:29;4.00;;;3.70;;
2544;SDS011;36212;48.838;9.142;2023-05-15T08:08:01;3.90;;;3.60;;
2544;SDS011;36212;48.838;9.142;2023-05-15T08:10:34;3.90;;;3.60;;
2544;SDS011;36212;48.838;9.142;2023-05-15T08:13:06;3.77;;;3.57;;
2544;SDS011;36212;48.838;9.142;2023-05-15T08:15:38;4.03;;;3.53;;
2544;SDS011;36212;48.838;9.142;2023-05-15T08:18:10;5.27;;;4.10;;
2544;SDS011;36212;48.838;9.142;2023-05-15T08:20:43;4.20;;;3.90;;
2544;SDS011;36212;48.838;9.142;2023-05-15T08:23:15;4.70;;;4.13;;
2544;SDS011;36212;48.838;9.142;2023-05-15T08:25:48;5.50;;;3.63;;
2544;SDS011;36212;48.838;9.142;2023-05-15T08:28:21;3.93;;;3.63;;
2544;SDS011;36212;48.838;9.142;2023-05-15T08:30:53;3.87;;;3.67;;
2544;SDS011;36212;48.838;9.142;2023-05-15T08:33:29;4.00;;;3.80;;
2544;SDS011;36212;48.838;9.142;2023-05-15T08:36:02;3.30;;;3.10;;
2544;SDS011;36212;48.838;9.142;2023-05-15T08:38:35;3.80;;;3.60;;
2544;SDS011;36212;48.838;9.142;2023-05-15T08:41:10;4.10;;;3.80;;
2544;SDS011;36212;48.838;9.142;2023-05-15T08:44:18;3.90;;;3.70;;
2544;SDS011;36212;48.838;9.142;2023-05-15T08:46:53;3.97;;;3.77;;
2544;SDS011;36212;48.838;9.142;2023-05-15T08:52:27;4.33;;;4.00;;
2544;SDS011;36212;48.838;9.142;2023-05-15T08:55:01;12.00;;;5.13;;
2544;SDS011;36212;48.838;9.142;2023-05-15T08:57:37;4.30;;;4.00;;
2544;SDS011;36212;48.838;9.142;2023-05-15T09:00:10;4.30;;;4.00;;
2544;SDS011;36212;48.838;9.142;2023-05-15T09:02:46;5.53;;;4.80;;
2544;SDS011;36212;48.838;9.142;2023-05-15T09:05:20;4.53;;;4.23;;
2544;SDS011;36212;48.838;9.142;2023-05-15T09:07:52;4.73;;;4.33;;
2544;SDS011;36212;48.838;9.142;2023-05-15T09:10:28;3.70;;;3.50;;
2544;SDS011;36212;48.838;9.142;2023-05-15T09:13:02;3.87;;;3.57;;
2544;SDS011;36212;48.838;9.142;2023-05-15T09:15:38;4.70;;;4.40;;
2544;SDS011;36212;48.838;9.142;2023-05-15T09:18:12;4.30;;;4.00;;
2544;SDS011;36212;48.838;9.142;2023-05-15T09:20:47;4.70;;;4.40;;
2544;SDS011;36212;48.838;9.142;2023-05-15T09:23:21;4.70;;;4.40;;
2544;SDS011;36212;48.838;9.142;2023-05-15T09:25:56;4.63;;;4.17;;
2544;SDS011;36212;48.838;9.142;2023-05-15T09:28:30;4.70;;;4.40;;
2544;SDS011;36212;48.838;9.142;2023-05-15T09:31:04;4.57;;;4.17;;
2544;SDS011;36212;48.838;9.142;2023-05-15T09:33:38;4.23;;;4.03;;
2544;SDS011;36212;48.838;9.142;2023-05-15T09:36:12;4.00;;;3.80;;
2544;SDS011;36212;48.838;9.142;2023-05-15T09:38:56;3.70;;;3.50;;
2544;SDS011;36212;48.838;9.142;2023-05-15T09:41:30;4.23;;;3.93;;
2544;SDS011;36212;48.838;9.142;2023-05-15T09:44:03;4.90;;;4.50;;
2544;SDS011;36212;48.838;9.142;2023-05-15T09:46:49;5.40;;;5.00;;
2544;SDS011;36212;48.838;9.142;2023-05-15T09:49:22;4.57;;;4.27;;
2544;SDS011;36212;48.838;9.142;2023-05-15T09:51:57;5.43;;;5.03;;
2544;SDS011;36212;48.838;9.142;2023-05-15T09:54:31;5.57;;;4.87;;
2544;SDS011;36212;48.838;9.142;2023-05-15T09:57:11;5.33;;;4.83;;
2544;SDS011;36212;48.838;9.142;2023-05-15T09:59:45;5.47;;;4.90;;
2544;SDS011;36212;48.838;9.142;2023-05-15T13:11:42;4.87;;;4.57;;
2544;SDS011;36212;48.838;9.142;2023-05-15T13:14:16;4.40;;;4.17;;
2544;SDS011;36212;48.838;9.142;2023-05-15T13:16:49;6.33;;;4.40;;
2544;SDS011;36212;48.838;9.142;2023-05-15T13:19:21;4.63;;;4.33;;
2544;SDS011;36212;48.838;9.142;2023-05-15T13:21:54;4.60;;;4.40;;
2544;SDS011;36212;48.838;9.142;2023-05-15T13:24:27;4.30;;;4.10;;
2544;SDS011;36212;48.838;9.142;2023-05-15T13:27:00;4.20;;;4.00;;
2544;SDS011;36212;48.838;9.142;2023-05-15T13:29:33;5.63;;;5.13;;
2544;SDS011;36212;48.838;9.142;2023-05-15T13:32:05;4.07;;;3.67;;
2544;SDS011;36212;48.838;9.142;2023-05-15T13:34:38;4.50;;;4.10;;
2544;SDS011;36212;48.838;9.142;2023-05-15T13:37:10;4.80;;;4.50;;
2544;SDS011;36212;48.838;9.142;2023-05-15T13:39:44;8.17;;;5.50;;
2544;SDS011;36212;48.838;9.142;2023-05-15T13:42:16;5.30;;;4.90;;
2544;SDS011;36212;48.838;9.142;2023-05-15T13:44:49;5.97;;;4.60;;
2544;SDS011;36212;48.838;9.142;2023-05-15T13:47:21;4.67;;;4.37;;
2544;SDS011;36212;48.838;9.142;2023-05-15T13:49:53;5.30;;;4.90;;
2544;SDS011;36212;48.838;9.142;2023-05-15T13:52:26;4.97;;;4.47;;
2544;SDS011;36212;48.838;9.142;2023-05-15T13:54:58;5.00;;;4.70;;
2544;SDS011;36212;48.838;9.142;2023-05-15T13:57:30;5.27;;;4.87;;
2544;SDS011;36212;48.838;9.142;2023-05-15T14:00:06;6.10;;;4.27;;
2544;SDS011;36212;48.838;9.142;2023-05-15T14:02:44;9.53;;;4.30;;
2544;SDS011;36212;48.838;9.142;2023-05-15T14:05:17;3.90;;;3.70;;
2544;SDS011;36212;48.838;9.142;2023-05-15T14:07:49;4.40;;;4.00;;
2544;SDS011;36212;48.838;9.142;2023-05-15T14:10:21;4.20;;;4.00;;
2544;SDS011;36212;48.838;9.142;2023-05-15T14:12:57;4.87;;;4.07;;
2544;SDS011;36212;48.838;9.142;2023-05-15T14:15:31;4.53;;;4.23;;
2544;SDS011;36212;48.838;9.142;2023-05-15T14:18:04;4.90;;;4.60;;
2544;SDS011;36212;48.838;9.142;2023-05-15T14:20:37;5.47;;;5.07;;
2544;SDS011;36212;48.838;9.142;2023-05-15T14:23:09;5.63;;;5.33;;
2544;SDS011;36212;48.838;9.142;2023-05-15T14:25:42;5.60;;;5.10;;
2544;SDS011;36212;48.838;9.142;2023-05-15T14:28:14;5.83;;;5.43;;
2544;SDS011;36212;48.838;9.142;2023-05-15T14:30:51;6.10;;;5.50;;
2544;SDS011;36212;48.838;9.142;2023-05-15T14:33:23;5.13;;;4.83;;
2544;SDS011;36212;48.838;9.142;2023-05-15T14:35:57;4.70;;;4.40;;
2544;SDS011;36212;48.838;9.142;2023-05-15T14:38:30;5.17;;;4.87;;
2544;SDS011;36212;48.838;9.142;2023-05-15T14:41:03;6.03;;;5.53;;
2544;SDS011;36212;48.838;9.142;2023-05-15T14:43:36;5.40;;;5.10;;
2544;SDS011;36212;48.838;9.142;2023-05-15T14:46:09;5.10;;;4.80;;
2544;SDS011;36212;48.838;9.142;2023-05-15T14:48:43;5.13;;;4.63;;
2544;SDS011;36212;48.838;9.142;2023-05-15T14:51:20;3.80;;;3.60;;
2544;SDS011;36212;48.838;9.142;2023-05-15T14:53:56;3.90;;;3.70;;
2544;SDS011;36212;48.838;9.142;2023-05-15T14:56:37;4.27;;;3.97;;
2544;SDS011;36212;48.838;9.142;2023-05-15T14:59:10;4.10;;;3.80;;
2544;SDS011;36212;48.838;9.142;2023-05-15T15:01:46;9.00;;;4.73;;
2544;SDS011;36212;48.838;9.142;2023-05-15T15:04:21;4.70;;;4.37;;
2544;SDS011;36212;48.838;9.142;2023-05-15T15:07:03;4.27;;;3.97;;
2544;SDS011;36212;48.838;9.142;2023-05-15T15:09:40;4.57;;;4.27;;
2544;SDS011;36212;48.838;9.142;2023-05-15T15:12:15;3.80;;;3.53;;
2544;SDS011;36212;48.838;9.142;2023-05-15T15:14:49;4.20;;;3.90;;
2544;SDS011;36212;48.838;9.142;2023-05-15T15:17:23;4.53;;;4.20;;
2544;SDS011;36212;48.838;9.142;2023-05-15T15:20:01;4.27;;;3.97;;
2544;SDS011;36212;48.838;9.142;2023-05-15T15:22:37;3.60;;;3.20;;
2544;SDS011;36212;48.838;9.142;2023-05-15T15:25:13;6.60;;;3.90;;
2544;SDS011;36212;48.838;9.142;2023-05-15T15:27:46;3.90;;;3.60;;
2544;SDS011;36212;48.838;9.142;2023-05-15T15:30:20;4.63;;;4.33;;
2544;SDS011;36212;48.838;9.142;2023-05-15T15:32:53;6.13;;;5.13;;
2544;SDS011;36212;48.838;9.142;2023-05-15T15:35:26;7.53;;;6.93;;
2544;SDS011;36212;48.838;9.142;2023-05-15T15:37:59;7.83;;;7.03;;
2544;SDS011;36212;48.838;9.142;2023-05-15T15:40:33;8.50;;;7.70;;
2544;SDS011;36212;48.838;9.142;2023-05-15T15:43:07;7.90;;;7.30;;
2544;SDS011;36212;48.838;9.142;2023-05-15T15:45:39;7.53;;;6.93;;
2544;SDS011;36212;48.838;9.142;2023-05-15T15:48:13;8.55;;;7.25;;
2544;SDS011;36212;48.838;9.142;2023-05-15T15:50:47;7.97;;;7.30;;
2544;SDS011;36212;48.838;9.142;2023-05-15T15:53:20;8.30;;;7.45;;
2544;SDS011;36212;48.838;9.142;2023-05-15T15:55:54;7.20;;;6.50;;
2544;SDS011;36212;48.838;9.142;2023-05-15T15:58:28;7.72;;;6.55;;
2544;SDS011;36212;48.838;9.142;2023-05-15T16:01:01;8.10;;;7.50;;
2544;SDS011;36212;48.838;9.142;2023-05-15T16:03:33;14.80;;;9.63;;
2544;SDS011;36212;48.838;9.142;2023-05-15T16:06:06;10.98;;;9.98;;
2544;SDS011;36212;48.838;9.142;2023-05-15T16:08:39;10.00;;;8.05;;
2544;SDS011;36212;48.838;9.142;2023-05-15T16:11:12;7.07;;;6.60;;
2544;SDS011;36212;48.838;9.142;2023-05-15T16:13:45;7.07;;;6.55;;
2544;SDS011;36212;48.838;9.142;2023-05-15T16:16:18;7.72;;;7.13;;
2544;SDS011;36212;48.838;9.142;2023-05-15T16:18:51;7.00;;;6.50;;
2544;SDS011;36212;48.838;9.142;2023-05-15T16:21:23;7.15;;;6.50;;
2544;SDS011;36212;48.838;9.142;2023-05-15T16:23:56;7.15;;;6.53;;
2544;SDS011;36212;48.838;9.142;2023-05-15T16:26:28;6.50;;;6.00;;
2544;SDS011;36212;48.838;9.142;2023-05-15T16:29:01;6.60;;;6.10;;
2544;SDS011;36212;48.838;9.142;2023-05-15T16:31:34;5.85;;;5.45;;
2544;SDS011;36212;48.838;9.142;2023-05-15T16:34:07;7.32;;;6.65;;
2544;SDS011;36212;48.838;9.142;2023-05-15T16:36:40;6.18;;;5.70;;
2544;SDS011;36212;48.838;9.142;2023-05-15T16:39:13;5.57;;;5.07;;
2544;SDS011;36212;48.838;9.142;2023-05-15T16:41:46;6.35;;;5.85;;
2544;SDS011;36212;48.838;9.142;2023-05-15T16:44:19;6.13;;;5.72;;
2544;SDS011;36212;48.838;9.142;2023-05-15T16:46:51;6.82;;;6.22;;
2544;SDS011;36212;48.838;9.142;2023-05-15T16:49:24;6.43;;;5.90;;
2544;SDS011;36212;48.838;9.142;2023-05-15T16:51:57;5.43;;;5.03;;
2544;SDS011;36212;48.838;9.142;2023-05-15T16:54:30;5.47;;;4.90;;
2544;SDS011;36212;48.838;9.142;2023-05-15T16:57:02;5.47;;;5.07;;
2544;SDS011;36212;48.838;9.142;2023-05-15T16:59:35;4.55;;;4.25;;
2544;SDS011;36212;48.838;9.142;2023-05-15T17:02:08;4.18;;;3.97;;
2544;SDS011;36212;48.838;9.142;2023-05-15T17:04:41;5.35;;;3.88;;
2544;SDS011;36212;48.838;9.142;2023-05-15T17:07:15;4.00;;;3.70;;
2544;SDS011;36212;48.838;9.142;2023-05-15T17:09:49;3.85;;;3.55;;
2544;SDS011;36212;48.838;9.142;2023-05-15T17:12:21;4.40;;;4.10;;
2544;SDS011;36212;48.838;9.142;2023-05-15T17:14:55;4.13;;;3.83;;
2544;SDS011;36212;48.838;9.142;2023-05-15T17:17:28;4.20;;;3.90;;
2544;SDS011;36212;48.838;9.142;2023-05-15T17:20:01;4.13;;;3.83;;
2544;SDS011;36212;48.838;9.142;2023-05-15T17:22:38;4.50;;;4.20;;
2544;SDS011;36212;48.838;9.142;2023-05-15T17:25:11;3.95;;;3.75;;
2544;SDS011;36212;48.838;9.142;2023-05-15T17:27:43;4.13;;;3.92;;
2544;SDS011;36212;48.838;9.142;2023-05-15T17:30:17;4.45;;;4.15;;
2544;SDS011;36212;48.838;9.142;2023-05-15T17:32:50;4.20;;;3.80;;
2544;SDS011;36212;48.838;9.142;2023-05-15T17:35:24;3.50;;;3.30;;
2544;SDS011;36212;48.838;9.142;2023-05-15T17:37:57;3.97;;;3.72;;
2544;SDS011;36212;48.838;9.142;2023-05-15T17:40:31;4.20;;;4.00;;
2544;SDS011;36212;48.838;9.142;2023-05-15T17:43:05;4.80;;;4.40;;
2544;SDS011;36212;48.838;9.142;2023-05-15T17:45:41;4.80;;;4.30;;
2544;SDS011;36212;48.838;9.142;2023-05-15T17:48:15;5.20;;;4.80;;
2544;SDS011;36212;48.838;9.142;2023-05-15T17:50:50;5.53;;;5.13;;
2544;SDS011;36212;48.838;9.142;2023-05-15T17:53:23;5.85;;;5.45;;
2544;SDS011;36212;48.838;9.142;2023-05-15T17:55:56;5.32;;;4.78;;
2544;SDS011;36212;48.838;9.142;2023-05-15T17:58:30;5.43;;;5.10;;
2544;SDS011;36212;48.838;9.142;2023-05-15T18:01:03;6.88;;;5.00;;
2544;SDS011;36212;48.838;9.142;2023-05-15T18:03:37;5.50;;;5.10;;
2544;SDS011;36212;48.838;9.142;2023-05-15T18:06:12;5.20;;;4.90;;
2544;SDS011;36212;48.838;9.142;2023-05-15T18:08:47;5.68;;;5.30;;
2544;SDS011;36212;48.838;9.142;2023-05-15T18:11:21;5.63;;;5.22;;
2544;SDS011;36212;48.838;9.142;2023-05-15T18:13:54;5.43;;;5.13;;
2544;SDS011;36212;48.838;9.142;2023-05-15T18:16:27;6.72;;;6.00;;
2544;SDS011;36212;48.838;9.142;2023-05-15T18:19:02;6.80;;;6.30;;
2544;SDS011;36212;48.838;9.142;2023-05-15T18:21:35;5.90;;;5.50;;
2544;SDS011;36212;48.838;9.142;2023-05-15T18:24:08;6.30;;;5.80;;
2544;SDS011;36212;48.838;9.142;2023-05-15T18:26:46;7.47;;;6.78;;
2544;SDS011;36212;48.838;9.142;2023-05-15T18:29:19;18.55;;;7.03;;
2544;SDS011;36212;48.838;9.142;2023-05-15T18:31:52;7.80;;;6.85;;
2544;SDS011;36212;48.838;9.142;2023-05-15T18:34:26;6.90;;;6.45;;
2544;SDS011;36212;48.838;9.142;2023-05-15T18:36:59;7.30;;;6.70;;
2544;SDS011;36212;48.838;9.142;2023-05-15T18:39:35;6.90;;;6.40;;
2544;SDS011;36212;48.838;9.142;2023-05-15T18:42:09;7.05;;;6.55;;
2544;SDS011;36212;48.838;9.142;2023-05-15T18:44:43;7.35;;;6.80;;
2544;SDS011;36212;48.838;9.142;2023-05-15T18:47:17;7.20;;;6.60;;
2544;SDS011;36212;48.838;9.142;2023-05-15T18:49:53;6.65;;;6.10;;
2544;SDS011;36212;48.838;9.142;2023-05-15T18:52:26;7.88;;;7.28;;
2544;SDS011;36212;48.838;9.142;2023-05-15T18:55:00;6.70;;;6.30;;
2544;SDS011;36212;48.838;9.142;2023-05-15T18:57:34;6.65;;;6.15;;
2544;SDS011;36212;48.838;9.142;2023-05-15T19:00:07;7.78;;;6.95;;
2544;SDS011;36212;48.838;9.142;2023-05-15T19:02:42;6.68;;;6.18;;